Time;durP1;ratioP1;P1;durP2;ratioP2;P2;SDS_P1;SDS_P2;PMS_P1;PMS_P2;Temp;Humidity;BMP_temperature;BMP_pressure;BME280_temperature;BME280_humidity;BME280_pressure;Samples;Min_cycle;Max_cycle;Signal;HPM_P1;HPM_P2
2021/08/11 00:01:46;;;;;;;9.50;4.07;;;;;;;15.18;95.03;99043.16;5046162;28;20049;-66
2021/08/11 00:04:11;;;;;;;7.18;3.97;;;;;;;15.14;95.20;99041.53;5046401;28;20017;-66
2021/08/11 00:06:37;;;;;;;8.95;4.40;;;;;;;15.18;95.53;99059.06;5046368;28;20209;-66
2021/08/11 00:09:03;;;;;;;13.10;5.20;;;;;;;15.30;95.68;99057.81;5046261;28;20088;-66
2021/08/11 00:11:32;;;;;;;8.90;4.72;;;;;;;15.36;95.63;99063.81;5046155;28;20018;-66
2021/08/11 00:13:59;;;;;;;9.68;4.03;;;;;;;15.34;94.35;99060.31;5046143;28;20021;-66
2021/08/11 00:16:25;;;;;;;8.88;4.13;;;;;;;15.35;94.07;99061.19;5044963;28;20053;-66
2021/08/11 00:18:50;;;;;;;7.55;4.65;;;;;;;15.38;94.45;99069.09;5061977;28;20092;-66
2021/08/11 00:21:15;;;;;;;7.50;4.57;;;;;;;15.48;95.24;99070.53;5066014;28;20017;-66
2021/08/11 00:23:41;;;;;;;13.02;4.22;;;;;;;15.54;94.89;99073.00;5066024;28;20025;-66
2021/08/11 00:26:06;;;;;;;8.80;4.07;;;;;;;15.51;94.30;99063.38;5065943;28;20044;-66
2021/08/11 00:28:32;;;;;;;10.15;4.28;;;;;;;15.52;94.47;99059.78;5064915;28;20079;-66
2021/08/11 00:30:57;;;;;;;11.30;4.90;;;;;;;15.50;94.85;99061.59;5065460;28;20025;-66
2021/08/11 00:33:23;;;;;;;9.70;3.97;;;;;;;15.61;94.69;99064.78;5065777;28;20017;-66
2021/08/11 00:35:48;;;;;;;7.88;4.00;;;;;;;15.68;94.58;99061.00;5065736;28;20013;-66
2021/08/11 00:38:14;;;;;;;6.70;4.07;;;;;;;15.70;94.91;99058.31;5065675;28;20042;-66
2021/08/11 00:40:39;;;;;;;7.47;4.30;;;;;;;15.73;94.64;99064.41;5065926;28;20039;-66
2021/08/11 00:43:10;;;;;;;7.32;4.20;;;;;;;15.71;94.32;99062.69;5065581;28;20064;-66
2021/08/11 00:45:37;;;;;;;12.18;4.03;;;;;;;15.68;94.44;99057.47;5054358;28;20017;-66
2021/08/11 00:48:04;;;;;;;9.27;4.20;;;;;;;15.70;94.75;99058.31;5045526;28;20094;-66
2021/08/11 00:50:30;;;;;;;7.60;4.60;;;;;;;15.68;95.03;99055.72;5045360;28;20081;-66
2021/08/11 00:52:55;;;;;;;10.43;4.68;;;;;;;15.63;95.37;99052.31;5044980;28;20379;-66
2021/08/11 00:55:22;;;;;;;10.85;4.75;;;;;;;15.72;95.52;99056.50;5045422;28;20021;-67
2021/08/11 00:57:50;;;;;;;8.77;4.28;;;;;;;15.69;95.42;99052.13;5044212;28;20096;-67
2021/08/11 01:00:20;;;;;;;7.88;4.68;;;;;;;15.60;95.51;99040.97;5045154;28;20256;-67
2021/08/11 01:02:46;;;;;;;7.15;4.72;;;;;;;15.58;95.55;99043.66;5045427;28;20021;-66
2021/08/11 01:05:17;;;;;;;6.97;4.65;;;;;;;15.55;95.41;99042.88;5060990;28;20035;-66
2021/08/11 01:07:43;;;;;;;7.17;4.47;;;;;;;15.49;95.54;99043.06;5063949;28;20316;-66
2021/08/11 01:10:09;;;;;;;7.65;3.80;;;;;;;15.56;95.55;99045.50;5064980;28;20294;-66
2021/08/11 01:12:35;;;;;;;6.70;4.05;;;;;;;15.58;95.47;99048.09;5063864;28;20036;-66
2021/08/11 01:15:04;;;;;;;11.45;4.35;;;;;;;15.49;95.22;99043.97;5064974;28;20025;-66
2021/08/11 01:17:30;;;;;;;9.50;4.22;;;;;;;15.48;95.54;99046.66;5057412;28;20017;-66
2021/08/11 01:19:57;;;;;;;7.78;4.80;;;;;;;15.43;95.47;99046.81;5044930;28;20063;-66
2021/08/11 01:22:40;;;;;;;8.40;4.45;;;;;;;15.36;95.85;99042.59;5044865;28;20024;-66
2021/08/11 01:25:06;;;;;;;6.90;4.03;;;;;;;15.44;95.95;99045.88;5045967;28;20017;-66
2021/08/11 01:28:09;;;;;;;8.20;4.05;;;;;;;15.45;95.72;99058.25;5044792;28;20025;-66
2021/08/11 01:30:49;;;;;;;9.65;4.80;;;;;;;15.45;95.73;99052.06;5044635;28;20025;-66
2021/08/11 01:33:45;;;;;;;15.48;5.07;;;;;;;15.45;96.00;99047.63;5044911;28;20045;-66
2021/08/11 01:36:29;;;;;;;16.40;4.43;;;;;;;15.47;95.52;99056.38;5046140;28;20037;-66
2021/08/11 01:39:01;;;;;;;11.48;4.50;;;;;;;15.50;95.89;99050.16;5044646;28;20097;-66
2021/08/11 01:41:33;;;;;;;9.70;4.90;;;;;;;15.53;95.96;99050.91;5044568;28;20060;-66
2021/08/11 01:43:59;;;;;;;9.27;4.63;;;;;;;15.56;95.95;99044.66;5044554;28;20017;-66
2021/08/11 01:46:27;;;;;;;7.50;3.78;;;;;;;15.56;95.39;99057.91;5044428;28;20025;-66
2021/08/11 01:48:56;;;;;;;5.95;4.00;;;;;;;15.57;94.96;99044.59;5043235;28;20092;-66
2021/08/11 01:51:21;;;;;;;9.20;4.10;;;;;;;15.49;94.97;99049.25;5044327;28;20024;-66
2021/08/11 01:53:49;;;;;;;6.97;4.10;;;;;;;15.40;94.45;99038.94;5044327;28;20242;-66
2021/08/11 01:56:16;;;;;;;12.55;4.22;;;;;;;15.30;94.55;99037.47;5044289;28;20335;-66
2021/08/11 01:58:42;;;;;;;13.13;3.72;;;;;;;15.31;95.02;99049.81;5044249;28;20025;-66
2021/08/11 02:01:08;;;;;;;8.70;4.28;;;;;;;15.34;95.12;99044.41;5044035;28;20048;-66
2021/08/11 02:03:36;;;;;;;11.30;4.38;;;;;;;15.23;94.87;99042.09;5043294;28;20048;-66
2021/08/11 02:06:02;;;;;;;10.35;3.38;;;;;;;15.18;94.48;99032.56;5044189;28;20293;-66
2021/08/11 02:08:29;;;;;;;8.20;3.75;;;;;;;15.17;94.58;99036.13;5044089;28;20021;-66
2021/08/11 02:10:57;;;;;;;6.90;3.88;;;;;;;15.05;94.75;99031.19;5043992;28;20101;-66
2021/08/11 02:13:23;;;;;;;5.80;3.38;;;;;;;15.09;94.56;99032.84;5044056;28;20196;-66
2021/08/11 02:15:50;;;;;;;7.60;4.07;;;;;;;15.03;94.45;99041.00;5044305;28;20028;-66
2021/08/11 02:18:15;;;;;;;10.18;4.50;;;;;;;14.97;94.72;99036.72;5044021;28;20312;-66
2021/08/11 02:20:41;;;;;;;10.10;3.92;;;;;;;14.83;94.36;99035.41;5043956;28;20096;-66
2021/08/11 02:23:06;;;;;;;11.73;4.13;;;;;;;14.83;95.12;99046.00;5043942;28;20029;-66
2021/08/11 02:25:33;;;;;;;13.82;4.47;;;;;;;14.87;95.27;99047.66;5058585;28;20066;-66
2021/08/11 02:28:14;;;;;;;8.65;3.65;;;;;;;14.80;95.09;99046.09;5062096;28;20101;-66
2021/08/11 02:31:00;;;;;;;7.43;3.80;;;;;;;14.76;94.93;99044.47;5043830;28;20025;-66
2021/08/11 02:33:40;;;;;;;8.43;4.18;;;;;;;14.71;94.65;99041.94;5044077;28;20071;-66
2021/08/11 02:36:17;;;;;;;7.97;3.60;;;;;;;14.67;94.64;99039.44;5043857;28;20021;-66
2021/08/11 02:38:43;;;;;;;12.48;4.93;;;;;;;14.59;94.96;99033.50;5043821;28;20096;-66
2021/08/11 02:41:28;;;;;;;7.38;4.07;;;;;;;14.59;95.40;99037.00;5043771;28;20021;-66
2021/08/11 02:44:13;;;;;;;9.35;3.60;;;;;;;14.47;94.60;99041.78;5044016;28;20029;-66
2021/08/11 02:46:41;;;;;;;4.80;3.45;;;;;;;14.48;94.39;99047.03;5043786;28;20021;-66
2021/08/11 02:49:13;;;;;;;10.77;3.70;;;;;;;14.40;93.98;99046.38;5043707;28;20027;-66
2021/08/11 02:51:40;;;;;;;18.17;3.75;;;;;;;14.35;95.17;99042.13;5043648;28;20029;-66
2021/08/11 02:54:11;;;;;;;6.35;3.40;;;;;;;14.29;95.06;99043.19;5043635;28;20093;-66
2021/08/11 02:56:41;;;;;;;8.02;2.97;;;;;;;14.23;94.59;99100.72;5043655;28;20017;-66
2021/08/11 02:59:07;;;;;;;6.70;3.40;;;;;;;14.18;94.87;99099.94;5043624;28;20080;-66
2021/08/11 03:01:34;;;;;;;9.88;3.58;;;;;;;14.20;95.01;99074.28;5042262;28;20356;-66
2021/08/11 03:04:00;;;;;;;7.65;3.58;;;;;;;14.17;95.00;99074.34;5042658;28;20021;-66
2021/08/11 03:06:26;;;;;;;9.15;3.70;;;;;;;14.15;94.93;99065.63;5043460;28;20064;-66
2021/08/11 03:08:52;;;;;;;10.68;3.50;;;;;;;14.11;94.96;99066.63;5043501;28;20033;-66
2021/08/11 03:11:19;;;;;;;5.55;3.30;;;;;;;14.03;94.47;99082.69;5043394;28;20343;-66
2021/08/11 03:13:45;;;;;;;6.63;3.28;;;;;;;14.04;94.58;99062.38;5043445;28;20363;-66
2021/08/11 03:16:12;;;;;;;3.88;2.92;;;;;;;14.02;94.78;99064.19;5046744;28;20025;-66
2021/08/11 03:18:38;;;;;;;3.92;2.90;;;;;;;13.98;94.54;99057.25;5052875;28;20025;-66
2021/08/11 03:21:04;;;;;;;9.63;3.75;;;;;;;13.95;94.76;99062.63;5067146;28;20321;-66
2021/08/11 03:23:30;;;;;;;7.05;3.60;;;;;;;13.92;95.10;99062.72;5067128;28;20024;-66
2021/08/11 03:25:55;;;;;;;8.35;3.03;;;;;;;14.02;95.33;99146.25;5048210;28;20032;-66
2021/08/11 03:28:21;;;;;;;3.90;3.20;;;;;;;14.05;95.22;99107.31;5047006;28;20021;-66
2021/08/11 03:30:46;;;;;;;6.55;2.83;;;;;;;14.03;94.72;99087.09;5046915;28;20025;-66
2021/08/11 03:33:11;;;;;;;4.13;2.95;;;;;;;13.91;94.69;99087.41;5046975;28;20025;-66
2021/08/11 03:35:37;;;;;;;10.27;2.83;;;;;;;13.81;94.89;99080.63;5046901;28;20285;-66
2021/08/11 03:38:03;;;;;;;3.25;2.38;;;;;;;13.88;94.27;99077.78;5046839;28;20022;-66
2021/08/11 03:40:29;;;;;;;3.88;2.75;;;;;;;13.90;94.52;99069.81;5046779;28;20029;-66
2021/08/11 03:42:54;;;;;;;9.35;3.17;;;;;;;13.78;95.35;99075.41;5046770;28;20088;-66
2021/08/11 03:45:19;;;;;;;4.72;3.10;;;;;;;13.85;95.43;99084.91;5046755;28;20032;-66
2021/08/11 03:47:45;;;;;;;5.05;2.95;;;;;;;13.94;95.07;99082.91;5064204;28;20025;-66
2021/08/11 03:50:12;;;;;;;7.72;3.40;;;;;;;13.98;95.56;99070.50;5066505;28;20029;-66
2021/08/11 03:52:37;;;;;;;7.47;3.30;;;;;;;14.07;95.23;99078.16;5060169;28;20365;-66
2021/08/11 03:55:03;;;;;;;7.55;2.97;;;;;;;14.09;94.96;99071.06;5046515;28;20036;-66
2021/08/11 03:57:28;;;;;;;4.72;3.00;;;;;;;14.10;94.70;99076.31;5046426;28;20079;-66
2021/08/11 03:59:54;;;;;;;5.28;3.10;;;;;;;14.13;94.88;99075.34;5046351;28;20093;-66
2021/08/11 04:02:19;;;;;;;6.10;2.88;;;;;;;14.17;94.62;99079.66;5046200;28;20343;-66
2021/08/11 04:04:45;;;;;;;4.93;3.05;;;;;;;14.17;94.35;99092.91;5046419;28;20261;-66
2021/08/11 04:07:10;;;;;;;5.38;3.15;;;;;;;14.14;94.54;99090.34;5046369;28;20049;-66
2021/08/11 04:09:36;;;;;;;6.15;3.17;;;;;;;14.15;94.77;99130.03;5046228;28;20370;-66
2021/08/11 04:12:01;;;;;;;4.10;3.03;;;;;;;14.19;94.44;99125.50;5049646;28;20021;-66
2021/08/11 04:14:26;;;;;;;5.85;3.60;;;;;;;14.13;94.44;99099.19;5066195;28;20029;-66
2021/08/11 04:16:52;;;;;;;8.30;3.70;;;;;;;14.08;94.71;99082.56;5066410;28;20231;-66
2021/08/11 04:19:17;;;;;;;5.85;3.40;;;;;;;14.13;94.63;99093.88;5064940;28;20316;-66
2021/08/11 04:21:43;;;;;;;5.95;2.90;;;;;;;14.07;94.31;99094.03;5052399;28;20025;-66
2021/08/11 04:24:08;;;;;;;9.70;3.20;;;;;;;14.10;93.92;99086.91;5046055;28;20026;-66
2021/08/11 04:26:33;;;;;;;7.32;3.30;;;;;;;14.17;94.09;99101.72;5045155;28;20088;-66
2021/08/11 04:28:59;;;;;;;7.47;3.63;;;;;;;14.19;94.18;99099.03;5045981;28;20026;-66
2021/08/11 04:31:24;;;;;;;4.75;2.95;;;;;;;14.25;94.25;99126.25;5045862;28;20031;-66
2021/08/11 04:33:50;;;;;;;10.80;3.80;;;;;;;14.31;94.09;99119.94;5048493;28;20041;-66
2021/08/11 04:36:15;;;;;;;6.93;3.25;;;;;;;14.32;94.23;99119.00;5046002;28;20252;-66
2021/08/11 04:38:40;;;;;;;11.18;3.60;;;;;;;14.32;94.12;99116.34;5045763;28;20025;-66
2021/08/11 04:41:06;;;;;;;10.57;3.30;;;;;;;14.39;93.94;99123.22;5061991;28;20021;-66
2021/08/11 04:43:31;;;;;;;8.80;3.50;;;;;;;14.43;93.81;99124.91;5055216;28;20028;-66
2021/08/11 04:45:57;;;;;;;4.57;3.13;;;;;;;14.46;93.82;99130.13;5051225;28;20067;-66
2021/08/11 04:48:22;;;;;;;5.90;3.10;;;;;;;14.48;93.57;99122.97;5045543;28;20029;-66
2021/08/11 04:50:47;;;;;;;4.78;3.13;;;;;;;14.38;93.24;99200.94;5045465;28;20225;-66
2021/08/11 04:53:13;;;;;;;4.68;3.15;;;;;;;14.35;93.22;99206.31;5045490;28;20027;-66
2021/08/11 04:55:38;;;;;;;4.53;2.92;;;;;;;14.37;93.54;99226.53;5045431;28;20025;-66
2021/08/11 04:58:04;;;;;;;5.32;3.00;;;;;;;14.51;93.53;99219.16;5045367;28;20198;-66
2021/08/11 05:00:29;;;;;;;7.00;3.10;;;;;;;14.61;93.38;99222.41;5043980;28;20029;-66
2021/08/11 05:02:54;;;;;;;4.47;2.85;;;;;;;14.68;93.20;99243.41;5045244;28;20021;-66
2021/08/11 05:05:20;;;;;;;5.35;3.60;;;;;;;14.78;93.48;99265.25;5045211;28;20079;-66
2021/08/11 05:07:46;;;;;;;4.25;3.40;;;;;;;14.83;93.24;99264.22;5045182;28;20032;-66
2021/08/11 05:10:12;;;;;;;6.55;3.25;;;;;;;14.80;93.13;99289.91;5045041;28;20047;-66
2021/08/11 05:12:37;;;;;;;8.93;2.90;;;;;;;14.68;93.66;99282.31;5045133;28;20312;-66
2021/08/11 05:15:04;;;;;;;9.20;3.47;;;;;;;14.70;93.69;99293.72;5045054;28;20021;-66
2021/08/11 05:17:30;;;;;;;7.15;3.33;;;;;;;14.83;93.42;99306.63;5044911;28;20044;-66
2021/08/11 05:19:56;;;;;;;7.20;3.30;;;;;;;14.92;93.01;99317.00;5044956;28;20343;-66
2021/08/11 05:22:23;;;;;;;13.23;3.20;;;;;;;14.99;93.73;99320.34;5043742;28;20025;-66
2021/08/11 05:24:49;;;;;;;8.75;3.25;;;;;;;15.23;93.41;99322.34;5044854;28;20029;-66
2021/08/11 05:27:15;;;;;;;6.47;3.30;;;;;;;15.36;92.72;99317.56;5044743;28;20029;-66
2021/08/11 05:29:42;;;;;;;7.75;3.22;;;;;;;15.56;92.74;99310.81;5044712;28;20205;-66
2021/08/11 05:32:09;;;;;;;4.28;3.15;;;;;;;15.72;91.96;99301.50;5044758;28;20363;-66
2021/08/11 05:34:34;;;;;;;6.63;3.08;;;;;;;16.22;90.54;99308.81;5044729;28;20194;-66
2021/08/11 05:37:00;;;;;;;8.60;3.03;;;;;;;16.25;90.24;99303.41;5044659;28;20025;-66
2021/08/11 05:39:25;;;;;;;9.07;3.40;;;;;;;16.70;88.96;99301.97;5044512;28;20037;-66
2021/08/11 05:41:50;;;;;;;9.68;2.95;;;;;;;17.17;86.50;99282.59;5044547;28;20028;-66
2021/08/11 05:44:16;;;;;;;8.23;3.53;;;;;;;17.41;86.59;99287.94;5044511;28;20025;-66
2021/08/11 05:46:41;;;;;;;3.65;2.30;;;;;;;17.21;85.96;99278.88;5044494;28;20071;-66
2021/08/11 05:49:07;;;;;;;9.20;3.03;;;;;;;16.98;87.66;99265.53;5044417;28;20025;-66
2021/08/11 05:51:34;;;;;;;5.90;2.65;;;;;;;16.99;87.44;99269.03;5044384;28;20025;-66
2021/08/11 05:54:09;;;;;;;9.20;3.20;;;;;;;16.96;88.20;99262.06;5043262;28;20036;-66
2021/08/11 05:56:34;;;;;;;5.15;2.80;;;;;;;16.98;88.16;99262.88;5044393;28;20092;-66
2021/08/11 05:59:00;;;;;;;4.93;3.10;;;;;;;16.89;88.49;99255.22;5043196;28;20021;-66
2021/08/11 06:01:26;;;;;;;6.03;2.92;;;;;;;17.39;88.10;99274.69;5044156;28;20040;-66
2021/08/11 06:03:54;;;;;;;8.85;3.20;;;;;;;17.68;86.88;99277.19;5044133;28;20033;-66
2021/08/11 06:06:19;;;;;;;12.23;2.97;;;;;;;17.92;85.03;99278.03;5044187;28;20025;-66
2021/08/11 06:08:45;;;;;;;3.83;2.70;;;;;;;17.83;85.01;99267.75;5044160;28;20013;-66
2021/08/11 06:11:10;;;;;;;6.35;3.33;;;;;;;18.70;82.08;99286.41;5044036;28;20021;-66
2021/08/11 06:13:36;;;;;;;4.28;2.88;;;;;;;19.33;80.53;99290.81;5044085;28;20049;-66
2021/08/11 06:16:01;;;;;;;4.35;3.20;;;;;;;19.96;78.25;99295.91;5042963;28;20194;-66
2021/08/11 06:18:26;;;;;;;9.02;3.67;;;;;;;20.81;75.97;99298.91;5044021;28;20079;-66
2021/08/11 06:20:52;;;;;;;8.55;3.40;;;;;;;21.45;73.30;99311.72;5043973;28;20021;-66
2021/08/11 06:23:21;;;;;;;6.32;3.10;;;;;;;21.77;72.21;99303.72;5043936;28;20017;-66
2021/08/11 06:25:47;;;;;;;6.63;3.22;;;;;;;22.60;70.47;99301.75;5043954;28;20029;-66
2021/08/11 06:28:12;;;;;;;6.53;3.22;;;;;;;23.07;68.88;99289.13;5043882;28;20028;-66
2021/08/11 06:30:38;;;;;;;12.60;3.78;;;;;;;22.74;68.70;99274.97;5043765;28;20033;-66
2021/08/11 06:33:04;;;;;;;7.68;3.25;;;;;;;22.91;67.81;99280.25;5043815;28;20084;-66
2021/08/11 06:35:29;;;;;;;7.18;3.72;;;;;;;23.94;65.90;99297.19;5042703;28;20017;-67
2021/08/11 06:37:54;;;;;;;7.40;3.28;;;;;;;23.97;67.44;99286.22;5043798;28;20212;-67
2021/08/11 06:40:21;;;;;;;8.93;3.28;;;;;;;23.82;65.99;99271.03;5043797;28;20017;-67
2021/08/11 06:42:48;;;;;;;9.00;3.00;;;;;;;24.22;63.91;99283.72;5044010;28;20017;-67
2021/08/11 06:45:14;;;;;;;9.45;3.08;;;;;;;24.77;63.79;99289.09;5043744;28;20092;-67
2021/08/11 06:47:40;;;;;;;9.65;3.40;;;;;;;24.46;62.78;99279.41;5043715;28;20056;-67
2021/08/11 06:50:07;;;;;;;7.47;3.45;;;;;;;25.02;61.02;99273.88;5044173;28;20025;-67
2021/08/11 06:52:33;;;;;;;6.18;3.35;;;;;;;25.33;61.28;99271.78;5047712;28;20367;-67
2021/08/11 06:55:08;;;;;;;9.55;3.60;;;;;;;25.47;60.38;99279.81;5047752;28;20025;-67
2021/08/11 06:57:33;;;;;;;8.95;3.42;;;;;;;24.97;60.79;99243.66;5047945;28;20023;-67
2021/08/11 06:59:59;;;;;;;6.50;3.60;;;;;;;26.34;59.84;99278.91;5047618;28;20017;-67
2021/08/11 07:02:25;;;;;;;7.32;3.40;;;;;;;27.07;56.26;99280.56;5047368;28;20060;-67
2021/08/11 07:04:50;;;;;;;7.55;4.00;;;;;;;27.27;55.54;99277.22;5047556;28;20074;-67
2021/08/11 07:07:16;;;;;;;9.82;3.20;;;;;;;27.90;53.34;99287.63;5047473;28;20041;-68
2021/08/11 07:09:41;;;;;;;6.97;3.03;;;;;;;27.18;56.83;99251.75;5047343;28;20217;-68
2021/08/11 07:12:07;;;;;;;6.75;2.85;;;;;;;26.17;58.96;99222.59;5047392;28;20026;-67
2021/08/11 07:14:33;;;;;;;6.65;3.05;;;;;;;26.65;56.81;99232.50;5047328;28;20021;-67
2021/08/11 07:16:58;;;;;;;6.05;3.45;;;;;;;26.52;56.22;99226.25;5047315;28;20013;-67
2021/08/11 07:19:23;;;;;;;6.75;3.53;;;;;;;26.48;57.40;99228.31;5047219;28;20032;-67
2021/08/11 07:21:49;;;;;;;5.38;3.40;;;;;;;26.55;56.30;99220.63;5047190;28;20305;-67
2021/08/11 07:24:14;;;;;;;11.80;3.20;;;;;;;27.34;55.39;99250.59;5047152;28;20040;-67
2021/08/11 07:26:40;;;;;;;7.18;3.72;;;;;;;28.02;53.65;99249.59;5047114;28;20028;-67
2021/08/11 07:29:05;;;;;;;4.32;3.08;;;;;;;27.94;52.71;99246.66;5047061;28;20040;-67
2021/08/11 07:31:31;;;;;;;7.68;3.13;;;;;;;28.40;51.29;99244.63;5047021;28;20013;-67
2021/08/11 07:33:56;;;;;;;7.80;3.15;;;;;;;28.85;51.06;99245.38;5046976;28;20017;-67
2021/08/11 07:36:22;;;;;;;7.70;3.35;;;;;;;29.11;51.49;99244.94;5045774;28;20021;-67
2021/08/11 07:38:47;;;;;;;6.88;3.13;;;;;;;29.54;50.30;99255.69;5047111;28;20025;-67
2021/08/11 07:41:13;;;;;;;7.40;3.33;;;;;;;28.87;51.42;99230.75;5046815;28;20014;-67
2021/08/11 07:43:39;;;;;;;4.28;3.00;;;;;;;29.23;49.73;99228.63;5046777;28;20021;-67
2021/08/11 07:46:04;;;;;;;6.28;2.78;;;;;;;28.89;49.81;99209.78;5046718;28;20021;-67
2021/08/11 07:48:30;;;;;;;11.38;3.28;;;;;;;29.23;51.46;99219.50;5046715;28;20021;-67
2021/08/11 07:50:55;;;;;;;8.77;3.15;;;;;;;29.44;50.40;99224.94;5046637;28;20021;-67
2021/08/11 07:53:20;;;;;;;3.72;2.72;;;;;;;29.13;50.11;99218.56;5046624;28;20029;-67
2021/08/11 07:55:46;;;;;;;7.82;3.30;;;;;;;29.52;49.42;99218.84;5046615;28;20026;-67
2021/08/11 07:58:11;;;;;;;5.82;2.90;;;;;;;29.30;49.99;99209.00;5046563;28;20017;-67
2021/08/11 08:00:36;;;;;;;6.47;2.83;;;;;;;29.98;46.26;99228.25;5044561;28;20069;-67
2021/08/11 08:03:02;;;;;;;8.07;2.85;;;;;;;30.10;47.81;99226.28;5045767;28;20048;-67
2021/08/11 08:05:27;;;;;;;5.55;3.05;;;;;;;30.26;47.30;99222.09;5046429;28;20371;-67
2021/08/11 08:07:53;;;;;;;6.13;2.83;;;;;;;30.37;46.56;99230.13;5046353;28;20062;-67
2021/08/11 08:10:18;;;;;;;7.18;2.80;;;;;;;29.69;47.27;99194.69;5046249;28;20128;-67
2021/08/11 08:12:44;;;;;;;9.40;2.90;;;;;;;30.67;47.11;99221.91;5046284;28;20025;-67
2021/08/11 08:15:12;;;;;;;6.93;2.92;;;;;;;31.40;46.38;99226.81;5046223;28;20052;-67
2021/08/11 08:17:38;;;;;;;6.85;2.83;;;;;;;31.56;43.84;99220.75;5046166;28;20018;-67
2021/08/11 08:20:04;;;;;;;7.55;2.85;;;;;;;31.58;44.23;99214.19;5046116;28;20343;-67
2021/08/11 08:22:30;;;;;;;4.55;2.50;;;;;;;31.78;43.96;99215.84;5046066;28;20025;-68
2021/08/11 08:24:55;;;;;;;5.25;2.88;;;;;;;31.68;46.50;99204.13;5046036;28;20076;-68
2021/08/11 08:27:24;;;;;;;6.47;3.17;;;;;;;31.79;43.12;99203.94;5045998;28;20021;-68
2021/08/11 08:29:51;;;;;;;4.18;2.70;;;;;;;31.44;44.23;99213.78;5046122;28;20021;-68
2021/08/11 08:32:17;;;;;;;8.68;2.80;;;;;;;32.31;44.49;99225.09;5044745;28;20017;-68
2021/08/11 08:34:43;;;;;;;7.63;2.80;;;;;;;32.40;41.87;99213.28;5045847;28;20067;-68
2021/08/11 08:37:08;;;;;;;6.82;2.58;;;;;;;32.26;43.91;99207.47;5045828;28;20044;-68
2021/08/11 08:39:33;;;;;;;5.85;2.80;;;;;;;32.75;42.05;99218.81;5045868;28;20025;-68
2021/08/11 08:42:00;;;;;;;6.63;2.80;;;;;;;32.76;41.51;99209.63;5045713;28;20085;-68
2021/08/11 08:44:27;;;;;;;9.70;2.40;;;;;;;32.64;42.44;99210.84;5045968;28;20041;-68
2021/08/11 08:46:55;;;;;;;10.10;2.83;;;;;;;32.82;39.45;99198.09;5045639;28;20021;-68
2021/08/11 08:49:21;;;;;;;6.82;2.58;;;;;;;32.46;40.82;99188.16;5045570;28;20244;-68
2021/08/11 08:51:48;;;;;;;4.07;2.25;;;;;;;31.90;43.69;99164.78;5045491;28;20052;-68
2021/08/11 08:54:20;;;;;;;7.47;2.65;;;;;;;31.70;43.30;99163.97;5045495;28;20036;-68
2021/08/11 08:56:46;;;;;;;6.70;3.08;;;;;;;32.49;40.11;99168.78;5045471;28;20055;-68
2021/08/11 08:59:11;;;;;;;4.53;2.15;;;;;;;32.82;41.08;99181.75;5045355;28;20185;-68
2021/08/11 09:01:37;;;;;;;5.35;2.30;;;;;;;32.45;40.50;99161.94;5044015;28;20382;-68
2021/08/11 09:04:02;;;;;;;8.68;3.08;;;;;;;32.10;40.74;99140.03;5045215;28;20031;-68
2021/08/11 09:06:33;;;;;;;4.90;2.30;;;;;;;32.37;42.96;99159.13;5045242;28;20021;-68
2021/08/11 09:09:08;;;;;;;7.82;2.05;;;;;;;32.87;39.39;99163.06;5045310;28;20025;-68
2021/08/11 09:11:35;;;;;;;6.22;2.28;;;;;;;32.60;40.50;99149.50;5045277;28;20036;-68
2021/08/11 09:14:24;;;;;;;6.10;2.25;;;;;;;33.39;37.52;99165.88;5043693;28;20017;-68
2021/08/11 09:16:58;;;;;;;6.13;2.28;;;;;;;33.87;39.88;99163.47;5043947;28;20117;-68
2021/08/11 09:19:24;;;;;;;5.45;1.92;;;;;;;33.94;38.29;99159.94;5044981;28;20213;-68
2021/08/11 09:22:01;;;;;;;11.43;1.80;;;;;;;33.12;40.31;99149.63;5044925;28;20017;-68
2021/08/11 09:24:27;;;;;;;9.02;2.22;;;;;;;32.64;40.23;99134.53;5044895;28;20021;-68
2021/08/11 09:26:54;;;;;;;4.45;2.17;;;;;;;32.54;40.65;99127.44;5044821;28;20025;-68
2021/08/11 09:29:21;;;;;;;6.20;2.80;;;;;;;33.30;41.01;99150.44;5043654;28;20021;-68
2021/08/11 09:31:46;;;;;;;7.03;2.10;;;;;;;33.85;41.02;99190.09;5044707;28;20021;-68
2021/08/11 09:34:12;;;;;;;3.17;2.40;;;;;;;33.43;39.53;99170.03;5044717;28;20025;-68
2021/08/11 09:36:43;;;;;;;7.22;2.40;;;;;;;34.03;36.96;99179.94;5044674;28;20055;-68
2021/08/11 09:39:09;;;;;;;4.13;2.33;;;;;;;32.17;43.37;99130.25;5044607;28;20074;-68
2021/08/11 09:41:34;;;;;;;4.50;2.25;;;;;;;31.16;44.71;99120.28;5044593;28;20092;-68
2021/08/11 09:44:04;;;;;;;4.85;2.35;;;;;;;30.52;45.25;99094.72;5044591;28;20025;-68
2021/08/11 09:46:31;;;;;;;7.32;2.50;;;;;;;29.90;44.16;99077.91;5044513;28;20032;-68
2021/08/11 09:48:57;;;;;;;5.50;2.42;;;;;;;29.82;44.71;99080.44;5044460;28;20114;-68
2021/08/11 09:51:22;;;;;;;3.85;2.35;;;;;;;30.53;44.62;99099.19;5044356;28;20045;-68
2021/08/11 09:53:48;;;;;;;7.20;2.75;;;;;;;29.36;48.96;99061.13;5044379;28;20072;-68
2021/08/11 09:56:14;;;;;;;5.30;2.42;;;;;;;30.96;45.56;99118.63;5044412;28;20193;-68
2021/08/11 09:58:43;;;;;;;5.63;2.60;;;;;;;31.43;44.19;99116.81;5044308;28;20025;-68
2021/08/11 10:01:12;;;;;;;6.18;2.28;;;;;;;31.85;43.31;99135.28;5044181;28;20047;-68
2021/08/11 10:04:02;;;;;;;8.65;2.10;;;;;;;32.49;42.34;99137.97;5044179;28;20029;-68
2021/08/11 10:06:28;;;;;;;5.88;2.30;;;;;;;33.24;40.41;99159.28;5043075;28;20024;-68
2021/08/11 10:08:55;;;;;;;5.55;2.22;;;;;;;31.27;44.53;99097.50;5044173;28;20021;-68
2021/08/11 10:11:37;;;;;;;6.90;2.35;;;;;;;29.37;46.31;99046.56;5044076;28;20017;-68
2021/08/11 10:14:05;;;;;;;6.97;2.20;;;;;;;28.99;48.22;99053.53;5044045;28;20025;-68
2021/08/11 10:16:33;;;;;;;4.95;2.30;;;;;;;28.71;50.59;99059.63;5044056;28;20017;-68
2021/08/11 10:19:01;;;;;;;5.35;2.25;;;;;;;30.24;47.12;99087.44;5044086;28;20049;-68
2021/08/11 10:21:27;;;;;;;6.32;2.50;;;;;;;30.73;43.97;99092.75;5043959;28;20021;-68
2021/08/11 10:23:54;;;;;;;4.63;2.33;;;;;;;30.95;44.87;99095.16;5043435;28;20025;-68
2021/08/11 10:26:19;;;;;;;4.25;2.50;;;;;;;31.58;43.23;99094.44;5043766;28;20333;-68
2021/08/11 10:28:46;;;;;;;5.63;2.05;;;;;;;31.27;44.16;99086.63;5043968;28;20024;-68
2021/08/11 10:31:12;;;;;;;6.47;2.30;;;;;;;31.70;41.96;99085.03;5043798;28;20092;-68
2021/08/11 10:33:37;;;;;;;5.82;2.20;;;;;;;30.60;45.64;99063.13;5043885;28;20028;-68
2021/08/11 10:36:04;;;;;;;6.30;2.22;;;;;;;31.27;41.94;99071.19;5044111;28;20040;-68
2021/08/11 10:38:30;;;;;;;4.07;2.05;;;;;;;31.76;43.12;99076.25;5043800;28;20017;-68
2021/08/11 10:40:56;;;;;;;5.43;2.10;;;;;;;30.74;46.85;99042.81;5043798;28;20014;-68
2021/08/11 10:43:22;;;;;;;5.20;2.10;;;;;;;28.51;48.15;99003.56;5043790;28;20028;-68
2021/08/11 10:46:02;;;;;;;9.00;2.25;;;;;;;29.10;49.58;99034.47;5043774;28;20412;-68
2021/08/11 10:48:28;;;;;;;5.43;2.30;;;;;;;30.29;46.21;99057.97;5044067;28;20309;-68
2021/08/11 10:50:54;;;;;;;6.00;2.03;;;;;;;30.82;44.80;99062.00;5043621;28;20064;-68
2021/08/11 10:53:19;;;;;;;5.75;1.95;;;;;;;30.56;45.43;99044.53;5042531;28;20329;-68
2021/08/11 10:55:48;;;;;;;5.72;1.90;;;;;;;31.30;44.87;99057.31;5043701;28;20029;-68
2021/08/11 10:58:32;;;;;;;3.30;1.70;;;;;;;31.03;45.06;99035.44;5043628;28;20053;-68
2021/08/11 11:00:58;;;;;;;4.63;2.33;;;;;;;30.78;45.31;99028.78;5043331;28;20108;-68
2021/08/11 11:03:48;;;;;;;4.20;1.92;;;;;;;31.47;42.11;99067.38;5043522;28;20025;-68
2021/08/11 11:06:13;;;;;;;4.88;2.17;;;;;;;30.80;42.71;99047.66;5043642;28;20344;-68
2021/08/11 11:08:39;;;;;;;4.70;2.35;;;;;;;30.06;49.13;99034.78;5043577;28;20021;-68
2021/08/11 11:11:34;;;;;;;8.60;2.30;;;;;;;30.84;45.16;99071.69;5043394;28;20217;-68
2021/08/11 11:13:59;;;;;;;7.85;2.40;;;;;;;30.80;45.90;99059.41;5042358;28;20033;-68
2021/08/11 11:17:00;;;;;;;4.95;2.17;;;;;;;31.46;44.56;99252.56;5043453;28;20092;-68
2021/08/11 11:19:26;;;;;;;3.65;2.10;;;;;;;31.70;40.11;99220.31;5042285;28;20025;-68
2021/08/11 11:21:51;;;;;;;4.28;2.30;;;;;;;30.43;41.55;99128.22;5042274;28;20029;-68
2021/08/11 11:24:48;;;;;;;5.63;2.63;;;;;;;31.15;43.00;99124.03;5043411;28;20258;-68
2021/08/11 11:27:54;;;;;;;5.65;2.30;;;;;;;30.65;42.08;99108.88;5043406;28;20079;-68
2021/08/11 11:30:25;;;;;;;5.28;2.53;;;;;;;30.48;46.08;99096.00;5043315;28;20029;-68
2021/08/11 11:32:50;;;;;;;7.25;2.40;;;;;;;29.89;44.34;99081.63;5043370;28;20021;-68
2021/08/11 11:35:24;;;;;;;4.13;2.20;;;;;;;29.39;47.79;99060.88;5043601;28;20018;-68